CheckWX is a tool to help pilots better visualize weather data.  It is not intended as a substitute for an official pre-flight weather briefing.

00:38:55 UTC

KRND TAF
Randolph AFB Airport
Universal City, Texas, USA
TAF KRND 251700Z 2517/2623 34006KT 9999 FEW015 SCT030 QNH3013INS BECMG 2517/2518 03009KT 9999 FEW030 FEW180 QNH3007INS BECMG 2522/2523 03010G15KT 9999 FEW180 QNH3009INS BECMG 2602/2603 05009KT 9999 FEW180 520103 QNH3017INS BECMG 2614/2615 05012G20KT 9999 SKC QNH3023INS BECMG 2621/2622 07009KT 9999 SKC QNH3022INS TX28/2521Z TN12/2611Z LAST NO AMDS AFT 2600 NEXT 2609

Mar-25@
17:00 UTC

Mar-25 @ 17:00 UTC

Mar-26@
23:00 UTC

Mar-26 @ 23:00 UTC

TAF KRND 251700Z 2517/2623 34006KT 9999 FEW015 SCT030 QNH3013INS
Wind
  • 340° at 6 KTS
Cloud Levels
  • Few at 1,500' AGL
  • Scattered at 3,000' AGL

Mar-25@
17:00 UTC

Mar-25 @ 17:00 UTC

Mar-25@
22:00 UTC

Mar-25 @ 22:00 UTC

BECMG 2517/2518 03009KT 9999 FEW030 FEW180 QNH3007INS

Expired

Wind
  • 030° at 9 KTS
Cloud Levels
  • Few at 3,000' AGL
  • Few at 18,000' AGL

Mar-25@
22:00 UTC

Mar-25 @ 22:00 UTC

Mar-26@
02:00 UTC

Mar-26 @ 02:00 UTC

BECMG 2522/2523 03010G15KT 9999 FEW180 QNH3009INS

Becoming

Becoming Conditions expected by Mon, Mar 25, 2019 @ 23:00 UTC

Wind
  • 030° at 10 KTS
  • {Gusting to 15 KTS
Cloud Levels
  • Few at 18,000' AGL

Mar-26@
02:00 UTC

Mar-26 @ 02:00 UTC

Mar-26@
14:00 UTC

Mar-26 @ 14:00 UTC

BECMG 2602/2603 05009KT 9999 FEW180 520103 QNH3017INS

Becoming

Becoming Conditions expected by Tue, Mar 26, 2019 @ 03:00 UTC

Wind
  • 050° at 9 KTS
Cloud Levels
  • Few at 18,000' AGL
Turbulence
< Occasional moderate clear air turbulence expected at 1,000' AGL extending to 4,000' AGL

Mar-26@
14:00 UTC

Mar-26 @ 14:00 UTC

Mar-26@
21:00 UTC

Mar-26 @ 21:00 UTC

BECMG 2614/2615 05012G20KT 9999 SKC QNH3023INS

Becoming

Becoming Conditions expected by Tue, Mar 26, 2019 @ 15:00 UTC

Wind
  • 050° at 12 KTS
  • {Gusting to 20 KTS
Cloud Levels
  • Clear skies

Mar-26@
21:00 UTC

Mar-26 @ 21:00 UTC

Mar-26@
23:00 UTC

Mar-26 @ 23:00 UTC

BECMG 2621/2622 07009KT 9999 SKC QNH3022INS TX28/2521Z TN12/2611Z LAST NO AMDS AFT 2600 NEXT 2609

Becoming

Becoming Conditions expected by Tue, Mar 26, 2019 @ 22:00 UTC

Wind
  • 070° at 9 KTS
Cloud Levels
  • Clear skies